Time;durP1;ratioP1;P1;durP2;ratioP2;P2;SDS_P1;SDS_P2;PMS_P1;PMS_P2;Temp;Humidity;BMP_temperature;BMP_pressure;BME280_temperature;BME280_humidity;BME280_pressure;Samples;Min_cycle;Max_cycle;Signal;HPM_P1;HPM_P2
2021/05/09 00:00:40;;;;;;;31.38;12.53;;;;;;;6.93;62.15;100459.66;125955;1096;27163;-57
2021/05/09 00:03:21;;;;;;;31.90;12.97;;;;;;;6.93;61.93;100456.88;125947;1104;22759;-56
2021/05/09 00:05:51;;;;;;;32.30;12.95;;;;;;;6.94;61.93;100456.42;125878;1104;25155;-56
2021/05/09 00:08:21;;;;;;;28.55;12.25;;;;;;;6.96;62.11;100453.19;125868;1096;28266;-55
2021/05/09 00:10:51;;;;;;;30.30;12.35;;;;;;;6.98;62.48;100448.75;125977;1104;22744;-56
2021/05/09 00:13:22;;;;;;;29.30;11.55;;;;;;;6.97;62.45;100444.41;125937;1096;27160;-59
2021/05/09 00:15:52;;;;;;;30.35;12.30;;;;;;;6.99;62.26;100447.53;125967;1096;22734;-57
2021/05/09 00:18:22;;;;;;;26.88;11.95;;;;;;;6.99;62.32;100436.44;125886;1096;27093;-58
2021/05/09 00:20:52;;;;;;;30.33;13.53;;;;;;;6.99;62.42;100436.44;125938;1104;22716;-55
2021/05/09 00:23:22;;;;;;;30.83;13.25;;;;;;;6.99;62.04;100443.98;125855;1096;22796;-57
2021/05/09 00:25:52;;;;;;;32.83;13.50;;;;;;;6.98;62.29;100445.97;125864;1096;22759;-59
2021/05/09 00:28:22;;;;;;;30.40;13.70;;;;;;;6.96;62.46;100440.09;126028;1096;25861;-58
2021/05/09 00:30:51;;;;;;;;;;;;;;;6.95;62.37;100440.55;126409;1104;22915;-58
2021/05/09 00:33:20;;;;;;;28.37;12.13;;;;;;;6.92;62.33;100436.67;126186;1103;23120;-59
2021/05/09 00:35:50;;;;;;;29.05;12.48;;;;;;;6.91;62.51;100429.55;126000;1096;26644;-58
2021/05/09 00:38:20;;;;;;;36.78;16.73;;;;;;;6.91;62.40;100435.11;125784;1104;22778;-58
2021/05/09 00:40:50;;;;;;;33.27;14.87;;;;;;;6.89;62.40;100423.68;125699;1104;22755;-58
2021/05/09 00:43:20;;;;;;;32.45;14.23;;;;;;;6.89;62.44;100429.23;125648;1104;22814;-57
2021/05/09 00:45:50;;;;;;;32.70;14.35;;;;;;;6.87;62.56;100419.83;125673;1104;22883;-59
2021/05/09 00:48:20;;;;;;;37.00;14.93;;;;;;;6.84;62.44;100429.82;125975;1104;24429;-58
2021/05/09 00:50:50;;;;;;;33.65;15.25;;;;;;;6.84;62.33;100432.59;125903;1104;22734;-58
2021/05/09 00:53:26;;;;;;;32.38;13.75;;;;;;;6.81;62.56;100430.70;125905;1096;22766;-58
2021/05/09 00:55:58;;;;;;;30.17;13.90;;;;;;;6.77;62.35;100424.50;125893;1096;23480;-60
2021/05/09 00:58:30;;;;;;;32.40;14.85;;;;;;;6.76;62.67;100424.95;126064;1104;22731;-58
2021/05/09 01:01:01;;;;;;;37.20;16.00;;;;;;;6.76;62.65;100427.73;125835;1104;22758;-59
2021/05/09 01:03:35;;;;;;;44.23;17.97;;;;;;;6.71;62.85;100426.30;125921;1096;22728;-59
2021/05/09 01:06:07;;;;;;;38.93;16.73;;;;;;;6.69;62.88;100420.42;125932;1103;22741;-61
2021/05/09 01:08:38;;;;;;;38.97;16.27;;;;;;;6.66;62.78;100424.11;125961;1096;26200;-58
2021/05/09 01:11:09;;;;;;;38.35;15.50;;;;;;;6.65;62.81;100422.55;126237;1104;22773;-57
2021/05/09 01:13:37;;;;;;;;;;;;;;;6.62;62.93;100417.88;125925;1096;26222;-58
2021/05/09 01:16:08;;;;;;;37.97;15.23;;;;;;;6.59;62.93;100415.23;125912;1104;23120;-57
2021/05/09 01:18:39;;;;;;;41.13;17.05;;;;;;;6.56;62.84;100416.89;125860;1104;22742;-58
2021/05/09 01:21:09;;;;;;;44.30;16.57;;;;;;;6.54;62.88;100420.13;125943;1096;22735;-58
2021/05/09 01:23:39;;;;;;;41.48;17.23;;;;;;;6.54;62.79;100413.80;125867;1099;22748;-58
2021/05/09 01:26:09;;;;;;;41.95;16.83;;;;;;;6.53;62.80;100412.26;125984;1104;22730;-57
2021/05/09 01:28:39;;;;;;;34.45;15.13;;;;;;;6.51;62.80;100409.94;125886;1096;24448;-58
2021/05/09 01:31:08;;;;;;;28.20;11.43;;;;;;;6.49;62.73;100412.39;125865;1104;22758;-60
2021/05/09 01:33:38;;;;;;;26.43;11.07;;;;;;;6.46;62.96;100412.48;125827;1096;26991;-58
2021/05/09 01:36:08;;;;;;;23.68;8.65;;;;;;;6.44;62.82;100412.16;125784;1104;22715;-59
2021/05/09 01:38:38;;;;;;;26.43;10.25;;;;;;;6.41;62.96;100407.52;125876;1096;25835;-58
2021/05/09 01:41:08;;;;;;;24.75;10.38;;;;;;;6.38;62.52;100411.17;125865;1104;22732;-57
2021/05/09 01:43:39;;;;;;;23.48;9.45;;;;;;;6.37;62.90;100407.61;125948;1104;22858;-60
2021/05/09 01:46:11;;;;;;;21.98;9.03;;;;;;;6.36;62.95;100410.84;126086;1096;22732;-60
2021/05/09 01:48:41;;;;;;;23.60;9.73;;;;;;;6.33;62.79;100408.98;125869;1102;22731;-60
2021/05/09 01:51:12;;;;;;;23.20;10.47;;;;;;;6.31;62.74;100405.88;125874;1096;26238;-58
2021/05/09 01:53:40;;;;;;;;;;;;;;;6.29;62.69;100405.55;125817;1096;27138;-58
2021/05/09 01:56:11;;;;;;;23.50;10.03;;;;;;;6.22;62.81;100411.31;125727;1104;21471;-61
2021/05/09 01:58:40;;;;;;;29.05;10.38;;;;;;;6.19;62.81;100407.42;125873;1104;22758;-58
2021/05/09 02:01:11;;;;;;;27.85;10.25;;;;;;;6.16;62.88;100405.56;125825;1104;22825;-60
2021/05/09 02:03:41;;;;;;;22.17;9.57;;;;;;;6.15;63.12;100400.44;125898;1104;22737;-57
2021/05/09 02:06:11;;;;;;;27.23;10.63;;;;;;;6.13;62.94;100400.11;125900;1104;22734;-58
2021/05/09 02:08:40;;;;;;;25.75;11.50;;;;;;;6.09;63.04;100393.91;125972;1102;22751;-61
2021/05/09 02:11:10;;;;;;;27.48;11.18;;;;;;;6.06;62.91;100398.34;125888;1096;27122;-60
2021/05/09 02:13:41;;;;;;;26.07;11.17;;;;;;;6.03;62.94;100396.47;125900;1096;22758;-58
2021/05/09 02:16:11;;;;;;;28.63;11.38;;;;;;;6.02;63.15;100391.38;125780;1096;26448;-58
2021/05/09 02:18:41;;;;;;;28.88;11.48;;;;;;;5.99;63.13;100387.49;125875;1096;25838;-58
2021/05/09 02:21:10;;;;;;;26.38;11.48;;;;;;;5.93;63.25;100400.36;126021;1095;26250;-59
2021/05/09 02:23:40;;;;;;;25.25;11.15;;;;;;;5.91;63.18;100390.92;125827;1096;27848;-58
2021/05/09 02:26:10;;;;;;;29.85;12.38;;;;;;;5.88;63.24;100389.81;125753;1101;22755;-59
2021/05/09 02:28:42;;;;;;;27.68;11.58;;;;;;;5.88;63.32;100389.81;125837;1096;22751;-60
2021/05/09 02:31:13;;;;;;;29.60;12.20;;;;;;;5.86;63.40;100392.25;125894;1096;24257;-57
2021/05/09 02:33:42;;;;;;;30.70;12.80;;;;;;;5.85;63.55;100395.47;125996;1096;25880;-59
2021/05/09 02:36:13;;;;;;;33.30;13.33;;;;;;;5.80;63.57;100379.36;125847;1102;22908;-58
2021/05/09 02:38:43;;;;;;;30.27;12.67;;;;;;;5.78;63.73;100392.88;125881;1101;22755;-59
2021/05/09 02:41:13;;;;;;;34.03;13.70;;;;;;;5.74;63.76;100379.15;125909;1096;22793;-58
2021/05/09 02:43:44;;;;;;;31.95;13.93;;;;;;;5.70;63.77;100384.02;125858;1104;22731;-59
2021/05/09 02:46:14;;;;;;;30.90;13.10;;;;;;;5.69;63.79;100379.69;125924;1104;22858;-58
2021/05/09 02:48:44;;;;;;;33.55;14.58;;;;;;;5.69;63.91;100379.69;126162;1104;22809;-56
2021/05/09 02:51:15;;;;;;;33.07;14.27;;;;;;;5.64;63.91;100383.80;125763;1096;27167;-58
2021/05/09 02:53:45;;;;;;;36.07;15.57;;;;;;;5.62;64.03;100385.46;126031;1104;23174;-58
2021/05/09 02:56:16;;;;;;;37.40;15.10;;;;;;;5.60;63.87;100382.36;126119;1096;22755;-59
2021/05/09 02:58:47;;;;;;;33.70;14.85;;;;;;;5.56;64.16;100384.46;125858;1096;22821;-59
2021/05/09 03:01:17;;;;;;;34.60;14.77;;;;;;;5.54;64.00;100397.97;125890;1101;22934;-59
2021/05/09 03:03:46;;;;;;;34.40;14.88;;;;;;;5.53;64.20;100380.58;125727;1104;22773;-58
2021/05/09 03:06:17;;;;;;;34.60;16.55;;;;;;;5.51;64.46;100385.78;125777;1096;26635;-55
2021/05/09 03:08:47;;;;;;;33.23;14.28;;;;;;;5.51;64.55;100382.23;125857;1104;22730;-56
2021/05/09 03:11:17;;;;;;;34.23;15.20;;;;;;;5.48;64.33;100388.66;125856;1102;22712;-58
2021/05/09 03:13:46;;;;;;;35.73;15.53;;;;;;;5.47;64.53;100376.80;125829;1102;24764;-57
2021/05/09 03:16:16;;;;;;;34.83;15.95;;;;;;;5.43;64.67;100367.83;125913;1104;22735;-58
2021/05/09 03:18:46;;;;;;;34.63;15.43;;;;;;;5.38;64.87;100371.13;125859;1104;22765;-58
2021/05/09 03:21:16;;;;;;;35.25;15.78;;;;;;;5.36;64.99;100376.33;125760;1104;22715;-57
2021/05/09 03:23:45;;;;;;;;;;;;;;;5.34;65.01;100384.30;126020;1097;26458;-58
2021/05/09 03:26:15;;;;;;;32.75;14.70;;;;;;;5.31;65.23;100385.20;125885;1097;21457;-57
2021/05/09 03:28:45;;;;;;;35.38;15.80;;;;;;;5.26;65.42;100374.66;125791;1104;22755;-57
2021/05/09 03:31:15;;;;;;;46.10;18.45;;;;;;;5.22;65.58;100371.22;125838;1104;25356;-56
2021/05/09 03:33:45;;;;;;;37.80;14.75;;;;;;;5.23;65.51;100385.84;125937;1096;26743;-57
2021/05/09 03:36:16;;;;;;;36.63;15.75;;;;;;;5.22;65.54;100373.20;125870;1097;22751;-58
2021/05/09 03:38:45;;;;;;;35.53;15.37;;;;;;;5.23;65.66;100363.70;125892;1101;22716;-59
2021/05/09 03:41:16;;;;;;;29.03;14.13;;;;;;;5.21;65.73;100369.68;125798;1104;23218;-58
2021/05/09 03:43:46;;;;;;;35.77;14.73;;;;;;;5.18;65.63;100381.61;125828;1104;22755;-58
2021/05/09 03:46:16;;;;;;;35.40;15.33;;;;;;;5.16;65.79;100375.74;125867;1104;24378;-58
2021/05/09 03:48:45;;;;;;;37.17;15.70;;;;;;;5.14;66.00;100369.88;125948;1104;22728;-57
2021/05/09 03:51:15;;;;;;;31.90;15.20;;;;;;;5.14;66.43;100372.64;125816;1104;22744;-60
2021/05/09 03:53:45;;;;;;;33.50;14.80;;;;;;;5.14;65.87;100375.41;125775;1104;24378;-58
2021/05/09 03:56:15;;;;;;;33.60;15.23;;;;;;;5.14;66.24;100364.34;125966;1101;22758;-58
2021/05/09 03:58:45;;;;;;;33.30;13.83;;;;;;;5.16;66.31;100377.73;125859;1096;26197;-56
2021/05/09 04:01:14;;;;;;;37.48;14.78;;;;;;;5.17;66.45;100373.75;125763;1104;22728;-55
2021/05/09 04:03:45;;;;;;;32.20;13.95;;;;;;;5.16;66.38;100358.35;125798;1096;27128;-55
2021/05/09 04:06:15;;;;;;;31.10;13.93;;;;;;;5.16;66.56;100361.91;125874;1104;22728;-59
2021/05/09 04:08:44;;;;;;;33.78;13.90;;;;;;;5.17;66.63;100363.47;125806;1104;22758;-58
2021/05/09 04:11:14;;;;;;;29.43;13.37;;;;;;;5.20;66.64;100354.27;125937;1096;26203;-58
2021/05/09 04:13:48;;;;;;;30.05;13.23;;;;;;;5.23;66.96;100347.88;125825;1102;22738;-58
2021/05/09 04:16:18;;;;;;;31.23;13.43;;;;;;;5.24;67.17;100346.64;125937;1096;22755;-59
2021/05/09 04:18:47;;;;;;;26.88;13.03;;;;;;;5.29;66.94;100343.34;125793;1096;23691;-58
2021/05/09 04:21:17;;;;;;;32.33;13.13;;;;;;;5.36;67.45;100336.83;125847;1101;23176;-57
2021/05/09 04:23:47;;;;;;;31.15;12.43;;;;;;;5.41;67.23;100331.50;125934;1101;24431;-57
2021/05/09 04:26:17;;;;;;;30.00;13.07;;;;;;;5.46;67.30;100330.19;125796;1096;26200;-58
2021/05/09 04:28:47;;;;;;;28.73;12.50;;;;;;;5.52;67.26;100345.81;125740;1096;24340;-58
2021/05/09 04:31:17;;;;;;;29.73;12.43;;;;;;;5.59;67.61;100330.94;125772;1096;22726;-57
2021/05/09 04:33:47;;;;;;;31.53;13.40;;;;;;;5.65;67.30;100345.78;125837;1096;27119;-57
2021/05/09 04:36:17;;;;;;;27.13;11.90;;;;;;;5.72;67.56;100335.28;125917;1101;24200;-58
2021/05/09 04:38:47;;;;;;;30.13;12.60;;;;;;;5.81;67.65;100333.83;125850;1096;25745;-59
2021/05/09 04:41:17;;;;;;;29.53;12.33;;;;;;;5.89;67.81;100330.42;125805;1097;27125;-58
2021/05/09 04:43:47;;;;;;;26.97;12.17;;;;;;;6.00;67.79;100344.69;125857;1104;22733;-58
2021/05/09 04:46:16;;;;;;;27.80;12.78;;;;;;;6.10;67.61;100346.36;125710;1104;24444;-59
2021/05/09 04:48:47;;;;;;;30.78;12.83;;;;;;;6.20;67.81;100339.69;125667;1104;22734;-60
2021/05/09 04:51:18;;;;;;;23.45;10.08;;;;;;;6.29;67.82;100350.09;126048;1104;22731;-58
2021/05/09 04:53:48;;;;;;;25.27;11.33;;;;;;;6.41;67.87;100343.73;126245;1096;26628;-57
2021/05/09 04:56:19;;;;;;;30.50;11.73;;;;;;;6.53;67.89;100349.25;126271;1096;22745;-60
2021/05/09 04:58:49;;;;;;;26.93;11.63;;;;;;;6.67;67.84;100353.52;126109;1097;22759;-57
2021/05/09 05:01:19;;;;;;;26.75;10.88;;;;;;;6.77;67.73;100351.58;125849;1104;22748;-59
2021/05/09 05:03:49;;;;;;;24.30;11.97;;;;;;;6.85;67.83;100345.33;126029;1096;22752;-57
2021/05/09 05:06:19;;;;;;;24.50;10.17;;;;;;;6.95;67.62;100349.72;125840;1104;22758;-57
2021/05/09 05:08:48;;;;;;;;;;;;;;;7.07;67.63;100348.13;126134;1104;22757;-58
2021/05/09 05:11:18;;;;;;;26.93;11.97;;;;;;;7.16;67.81;100346.16;125906;1102;21471;-56
2021/05/09 05:13:48;;;;;;;24.90;10.00;;;;;;;7.25;67.50;100346.23;126154;1104;22755;-57
2021/05/09 05:16:18;;;;;;;26.35;11.15;;;;;;;7.34;67.44;100339.96;125873;1104;22803;-58
2021/05/09 05:18:48;;;;;;;28.35;11.43;;;;;;;7.43;67.65;100339.23;125875;1096;26670;-55
2021/05/09 05:21:18;;;;;;;24.30;10.20;;;;;;;7.54;67.55;100334.02;125861;1104;22737;-58
2021/05/09 05:23:49;;;;;;;24.43;9.57;;;;;;;7.66;67.52;100331.16;125800;1103;22758;-58
2021/05/09 05:26:18;;;;;;;26.23;10.57;;;;;;;7.79;67.36;100333.83;125947;1101;22755;-60
2021/05/09 05:28:48;;;;;;;23.63;9.55;;;;;;;7.91;67.29;100344.05;125775;1096;26193;-59
2021/05/09 05:31:18;;;;;;;19.10;8.20;;;;;;;8.05;67.39;100343.48;125921;1104;22740;-57
2021/05/09 05:33:47;;;;;;;;;;;;;;;8.21;67.28;100343.23;125796;1104;23457;-55
2021/05/09 05:36:17;;;;;;;24.53;10.00;;;;;;;8.34;67.20;100332.75;125858;1104;21477;-58
2021/05/09 05:38:47;;;;;;;25.88;10.25;;;;;;;8.45;66.99;100340.66;125811;1104;22758;-59
2021/05/09 05:41:17;;;;;;;23.85;8.65;;;;;;;8.57;67.02;100340.52;125911;1096;24229;-58
2021/05/09 05:43:46;;;;;;;23.13;8.90;;;;;;;8.71;66.41;100344.70;125716;1096;26209;-64
2021/05/09 05:46:16;;;;;;;25.10;9.60;;;;;;;8.83;66.53;100333.42;125650;1102;22735;-61
2021/05/09 05:48:46;;;;;;;21.90;9.30;;;;;;;8.94;66.90;100336.48;125605;1096;27173;-60
2021/05/09 05:51:16;;;;;;;25.33;9.08;;;;;;;9.09;66.47;100336.63;125824;1104;22817;-59
2021/05/09 05:53:47;;;;;;;35.90;15.43;;;;;;;9.25;66.46;100338.31;126094;1104;24147;-59
2021/05/09 05:56:16;;;;;;;;;;;;;;;9.37;66.07;100334.56;126219;1096;25755;-60
2021/05/09 05:58:46;;;;;;;28.13;11.83;;;;;;;9.52;66.35;100332.64;126164;1103;21474;-61
2021/05/09 06:01:16;;;;;;;21.90;8.85;;;;;;;9.66;66.19;100331.98;126144;1101;23710;-60
2021/05/09 06:03:46;;;;;;;21.03;7.25;;;;;;;9.78;65.68;100334.58;126092;1096;22735;-64
2021/05/09 06:06:18;;;;;;;20.47;8.30;;;;;;;9.92;65.83;100338.68;125932;1102;24428;-61
2021/05/09 06:08:51;;;;;;;23.85;9.05;;;;;;;10.05;65.74;100330.09;125954;1102;22816;-60
2021/05/09 06:11:22;;;;;;;25.77;10.07;;;;;;;10.18;65.24;100334.22;126030;1096;22749;-60
2021/05/09 06:13:51;;;;;;;;;;;;;;;10.28;64.80;100334.95;125960;1096;26197;-64
2021/05/09 06:16:21;;;;;;;19.63;7.50;;;;;;;10.35;65.19;100332.56;125879;1101;22867;-59
2021/05/09 06:18:51;;;;;;;22.40;8.93;;;;;;;10.44;65.01;100326.94;125923;1104;24161;-62
2021/05/09 06:21:22;;;;;;;17.20;6.05;;;;;;;10.53;64.59;100324.05;125938;1104;22716;-63
2021/05/09 06:23:52;;;;;;;21.47;7.63;;;;;;;10.62;64.48;100331.59;125928;1103;23018;-62
2021/05/09 06:26:22;;;;;;;15.98;5.58;;;;;;;10.71;64.58;100327.96;125808;1102;22785;-61
2021/05/09 06:28:53;;;;;;;23.80;7.65;;;;;;;10.85;64.89;100330.01;125798;1096;27138;-62
2021/05/09 06:31:23;;;;;;;19.97;7.47;;;;;;;10.98;64.29;100322.14;125818;1101;25381;-59
2021/05/09 06:33:53;;;;;;;28.03;11.68;;;;;;;11.10;64.18;100327.45;126291;1104;22815;-59
2021/05/09 06:36:22;;;;;;;;;;;;;;;11.23;63.85;100327.95;126049;1101;22803;-61
2021/05/09 06:38:53;;;;;;;25.57;9.03;;;;;;;11.36;64.07;100325.63;126004;1103;23168;-60
2021/05/09 06:41:23;;;;;;;18.43;6.50;;;;;;;11.50;63.34;100326.88;126048;1101;22754;-61
2021/05/09 06:43:55;;;;;;;;;;;;;;;11.62;63.32;100319.43;126209;1101;22758;-59
2021/05/09 06:46:25;;;;;;;12.33;4.27;;;;;;;11.74;62.95;100313.56;125983;1102;21784;-61
2021/05/09 06:48:55;;;;;;;12.67;4.30;;;;;;;11.85;62.84;100319.33;125962;1096;22734;-61
2021/05/09 06:51:25;;;;;;;12.58;4.23;;;;;;;11.96;62.23;100313.88;126028;1104;23305;-62
2021/05/09 06:53:55;;;;;;;10.30;2.88;;;;;;;12.06;61.71;100320.14;126231;1096;27641;-61
2021/05/09 06:56:27;;;;;;;;;;;;;;;12.15;61.73;100312.38;126015;1104;22735;-62
2021/05/09 06:58:57;;;;;;;8.25;2.30;;;;;;;12.24;61.61;100322.67;126200;1104;22280;-61
2021/05/09 07:01:27;;;;;;;10.30;3.53;;;;;;;12.33;61.85;100318.98;126029;1104;22716;-59
2021/05/09 07:03:57;;;;;;;9.38;2.70;;;;;;;12.43;61.08;100312.75;125895;1096;25874;-67
2021/05/09 07:06:27;;;;;;;11.93;2.25;;;;;;;12.52;61.00;100317.45;126073;1096;25829;-59
2021/05/09 07:08:57;;;;;;;8.98;2.28;;;;;;;12.61;61.02;100320.86;126103;1101;22838;-61
2021/05/09 07:11:30;;;;;;;10.10;2.23;;;;;;;12.70;60.89;100319.95;126058;1104;22709;-61
2021/05/09 07:14:01;;;;;;;8.23;2.30;;;;;;;12.84;61.02;100321.89;125963;1097;27500;-66
2021/05/09 07:16:31;;;;;;;9.50;2.57;;;;;;;12.96;60.20;100323.54;126164;1104;22759;-61
2021/05/09 07:19:05;;;;;;;7.87;2.20;;;;;;;13.06;60.44;100316.53;126171;1096;22819;-59
2021/05/09 07:21:39;;;;;;;9.73;2.17;;;;;;;13.15;59.84;100312.80;126380;1096;22753;-61
2021/05/09 07:24:11;;;;;;;12.60;2.85;;;;;;;13.24;59.63;100323.86;126048;1104;22731;-61
2021/05/09 07:26:43;;;;;;;6.07;1.70;;;;;;;13.34;59.51;100309.18;125941;1102;22883;-62
2021/05/09 07:29:13;;;;;;;6.47;1.70;;;;;;;13.44;59.64;100316.14;126010;1102;22813;-63
2021/05/09 07:31:43;;;;;;;7.63;1.60;;;;;;;13.58;59.43;100309.63;125816;1102;22755;-63
2021/05/09 07:34:14;;;;;;;6.03;1.68;;;;;;;13.73;58.84;100320.70;125604;1096;27110;-63
2021/05/09 07:36:44;;;;;;;9.25;1.70;;;;;;;13.82;58.72;100325.36;126194;1096;22765;-65
2021/05/09 07:39:15;;;;;;;8.08;1.58;;;;;;;13.91;58.36;100314.70;125778;1096;27094;-64
2021/05/09 07:41:45;;;;;;;6.75;1.70;;;;;;;14.01;58.05;100307.62;125909;1104;24157;-62
2021/05/09 07:44:14;;;;;;;12.35;1.95;;;;;;;14.10;58.12;100301.81;126159;1096;22753;-61
2021/05/09 07:46:44;;;;;;;8.38;1.53;;;;;;;14.20;57.52;100300.33;125933;1096;26599;-62
2021/05/09 07:49:14;;;;;;;6.30;1.53;;;;;;;14.34;57.22;100307.06;125929;1104;22725;-62
2021/05/09 07:51:44;;;;;;;7.00;1.38;;;;;;;14.49;56.93;100308.42;126121;1102;22755;-64
2021/05/09 07:54:14;;;;;;;8.50;1.70;;;;;;;14.60;57.07;100307.70;126165;1104;22824;-61
2021/05/09 07:56:44;;;;;;;7.28;1.50;;;;;;;14.73;56.43;100304.42;126319;1097;22731;-61
2021/05/09 07:59:14;;;;;;;5.65;1.50;;;;;;;14.81;56.31;100302.66;126132;1097;22751;-61
2021/05/09 08:01:44;;;;;;;5.70;1.40;;;;;;;14.90;55.60;100303.19;126157;1104;22758;-61
2021/05/09 08:04:14;;;;;;;8.78;1.95;;;;;;;15.00;55.36;100303.73;125875;1101;24378;-61
2021/05/09 08:06:43;;;;;;;;;;;;;;;15.11;54.73;100310.13;126360;1101;22752;-61
2021/05/09 08:09:14;;;;;;;5.90;1.60;;;;;;;15.17;55.40;100308.09;126031;1104;21468;-61
2021/05/09 08:11:44;;;;;;;6.23;1.57;;;;;;;15.24;55.27;100307.61;125986;1104;22759;-62
2021/05/09 08:14:15;;;;;;;6.95;1.55;;;;;;;15.33;55.64;100303.78;126038;1101;24456;-60
2021/05/09 08:16:45;;;;;;;5.83;1.27;;;;;;;15.44;54.42;100309.42;126091;1102;22746;-61
2021/05/09 08:19:15;;;;;;;5.43;1.20;;;;;;;15.56;54.85;100305.33;125985;1104;22837;-61
2021/05/09 08:21:44;;;;;;;;;;;;;;;15.65;54.62;100298.67;126020;1104;22861;-62
2021/05/09 08:24:14;;;;;;;7.17;1.40;;;;;;;15.73;53.87;100297.65;125971;1104;24208;-62
2021/05/09 08:26:45;;;;;;;3.73;1.03;;;;;;;15.81;54.27;100292.25;126231;1096;25757;-59
2021/05/09 08:29:15;;;;;;;4.78;1.28;;;;;;;15.93;54.42;100296.61;126190;1101;22755;-63
2021/05/09 08:31:45;;;;;;;7.10;1.80;;;;;;;16.04;54.18;100302.98;126193;1101;22745;-62
2021/05/09 08:34:16;;;;;;;5.50;1.23;;;;;;;16.14;53.72;100297.82;125990;1104;22737;-63
2021/05/09 08:36:46;;;;;;;5.75;1.35;;;;;;;16.29;53.39;100300.34;126157;1102;22919;-62
2021/05/09 08:39:15;;;;;;;;;;;;;;;16.40;52.56;100289.81;126266;1096;26204;-60
2021/05/09 08:41:47;;;;;;;4.70;1.00;;;;;;;16.49;52.40;100297.98;126028;1104;21464;-59
2021/05/09 08:44:17;;;;;;;5.15;1.25;;;;;;;16.60;52.52;100291.54;125975;1104;22812;-68
2021/05/09 08:46:48;;;;;;;4.95;1.18;;;;;;;16.69;52.78;100292.02;125896;1104;23338;-61
2021/05/09 08:49:20;;;;;;;3.70;1.05;;;;;;;16.78;52.07;100294.52;126185;1104;25006;-60
2021/05/09 08:51:51;;;;;;;6.80;1.15;;;;;;;16.83;51.75;100287.33;126114;1104;22754;-61
2021/05/09 08:54:21;;;;;;;4.90;1.30;;;;;;;16.87;51.33;100299.09;126094;1096;25749;-62
2021/05/09 08:56:51;;;;;;;8.50;1.45;;;;;;;16.93;51.29;100288.55;125927;1101;24147;-62
2021/05/09 08:59:21;;;;;;;;;;;;;;;16.99;51.04;100292.87;126147;1104;22731;-62
2021/05/09 09:01:51;;;;;;;4.65;1.00;;;;;;;17.11;50.96;100281.52;126055;1096;25679;-62
2021/05/09 09:04:22;;;;;;;5.45;1.10;;;;;;;17.20;50.94;100284.00;126133;1104;22857;-63
2021/05/09 09:07:04;;;;;;;7.50;1.70;;;;;;;17.34;51.02;100271.61;126007;1104;25435;-62
2021/05/09 09:09:40;;;;;;;8.10;1.35;;;;;;;17.48;51.69;100290.22;126155;1104;22730;-62
2021/05/09 09:12:12;;;;;;;6.05;1.20;;;;;;;17.57;50.14;100287.08;126133;1104;22686;-61
2021/05/09 09:15:01;;;;;;;6.25;1.10;;;;;;;17.62;49.68;100272.93;127284;1104;22696;-62
2021/05/09 09:17:31;;;;;;;3.93;1.00;;;;;;;17.74;50.39;100273.58;127602;1096;26340;-62
2021/05/09 09:20:13;;;;;;;9.03;1.27;;;;;;;17.84;49.88;100274.76;126056;1097;26231;-63
2021/05/09 09:23:04;;;;;;;3.35;0.95;;;;;;;17.97;50.18;100265.64;129744;1104;22473;-62
2021/05/09 09:25:36;;;;;;;4.30;1.05;;;;;;;18.09;49.11;100258.58;126257;1104;22734;-60
2021/05/09 09:28:06;;;;;;;4.85;1.20;;;;;;;18.17;49.04;100265.16;126234;1101;22734;-62
2021/05/09 09:30:52;;;;;;;3.40;0.70;;;;;;;18.23;48.30;100272.28;125939;1102;22759;-62
2021/05/09 09:33:23;;;;;;;3.40;0.80;;;;;;;18.33;47.72;100258.56;125939;1096;27125;-61
2021/05/09 09:35:57;;;;;;;3.15;0.80;;;;;;;18.39;47.00;100250.78;125966;1104;22755;-60
2021/05/09 09:38:30;;;;;;;5.95;0.90;;;;;;;18.45;47.20;100260.75;126047;1104;23467;-62
2021/05/09 09:41:18;;;;;;;5.35;0.90;;;;;;;18.55;47.23;100259.08;125828;1104;22748;-66
2021/05/09 09:44:04;;;;;;;2.95;0.60;;;;;;;18.66;47.65;100254.56;126009;1104;22716;-61
2021/05/09 09:46:36;;;;;;;4.90;0.70;;;;;;;18.78;46.53;100253.11;125941;1096;27301;-62
2021/05/09 09:49:21;;;;;;;2.45;0.60;;;;;;;18.90;45.76;100252.41;125951;1096;24377;-63
2021/05/09 09:51:54;;;;;;;3.25;0.70;;;;;;;18.95;44.70;100245.16;125997;1104;22865;-63
2021/05/09 09:54:35;;;;;;;1.85;0.60;;;;;;;18.98;44.84;100238.41;126369;1104;23503;-62
2021/05/09 09:57:08;;;;;;;2.90;0.60;;;;;;;19.07;44.37;100249.34;126083;1104;22719;-62
2021/05/09 09:59:39;;;;;;;1.80;0.50;;;;;;;19.12;44.05;100240.75;126055;1102;22728;-62
2021/05/09 10:02:09;;;;;;;1.50;0.40;;;;;;;19.18;43.80;100243.52;126007;1104;22755;-61
2021/05/09 10:04:40;;;;;;;5.15;0.65;;;;;;;19.26;43.63;100247.23;125939;1104;22765;-59
2021/05/09 10:07:10;;;;;;;5.25;0.80;;;;;;;19.34;43.79;100229.12;125934;1104;22737;-60
2021/05/09 10:09:41;;;;;;;2.80;0.60;;;;;;;19.42;44.06;100232.06;125933;1096;22735;-61
2021/05/09 10:12:12;;;;;;;3.30;0.70;;;;;;;19.50;43.23;100229.35;126066;1104;22724;-61
2021/05/09 10:14:43;;;;;;;4.30;0.90;;;;;;;19.52;42.80;100230.34;126078;1104;22743;-62
2021/05/09 10:17:15;;;;;;;3.05;0.90;;;;;;;19.57;42.89;100235.16;126014;1104;24565;-61
2021/05/09 10:19:47;;;;;;;2.97;0.63;;;;;;;19.61;43.02;100226.34;126185;1101;22816;-61
2021/05/09 10:22:31;;;;;;;2.70;0.50;;;;;;;19.67;42.92;100233.43;126087;1104;22775;-61
2021/05/09 10:25:02;;;;;;;3.05;0.70;;;;;;;19.72;42.44;100226.14;126057;1096;22713;-61
2021/05/09 10:27:40;;;;;;;3.40;0.70;;;;;;;19.77;42.61;100213.93;126113;1096;27266;-62
2021/05/09 10:30:13;;;;;;;2.87;0.50;;;;;;;19.84;42.25;100221.79;126082;1096;26254;-62
2021/05/09 10:32:53;;;;;;;3.75;0.70;;;;;;;19.89;41.48;100220.91;126073;1104;22735;-61
2021/05/09 10:35:39;;;;;;;;;;;;;;;20.00;41.51;100212.97;125992;1104;25656;-61
2021/05/09 10:38:10;;;;;;;4.75;0.80;;;;;;;20.06;41.80;100202.28;125760;1104;23169;-60
2021/05/09 10:40:43;;;;;;;1.87;0.43;;;;;;;20.16;41.67;100203.36;125873;1104;24380;-62
2021/05/09 10:43:33;;;;;;;2.83;0.50;;;;;;;20.25;42.51;100207.86;125980;1096;22755;-63
2021/05/09 10:46:03;;;;;;;;;;;;;;;20.35;41.66;100208.16;126167;1104;22744;-61
2021/05/09 10:48:34;;;;;;;3.05;0.53;;;;;;;20.40;41.63;100210.86;126521;1104;21494;-60
2021/05/09 10:51:29;;;;;;;2.65;0.60;;;;;;;;;;126249;1104;22735;-62
2021/05/09 10:54:20;;;;;;;1.77;0.50;;;;;;;20.45;41.07;100200.72;125715;1103;22758;-60
2021/05/09 10:56:53;;;;;;;2.67;0.60;;;;;;;20.49;40.46;100203.98;126037;1101;22787;-62
2021/05/09 10:59:59;;;;;;;3.40;0.80;;;;;;;20.54;41.29;100201.03;125798;1102;22715;-62
2021/05/09 11:02:32;;;;;;;3.33;0.43;;;;;;;20.61;40.69;100183.33;125828;1096;25873;-65
2021/05/09 11:05:02;;;;;;;1.43;0.45;;;;;;;20.65;40.34;100188.69;125855;1104;24437;-62
2021/05/09 11:07:44;;;;;;;;;;;;;;;20.71;39.44;100190.05;125942;1104;22755;-60
2021/05/09 11:10:39;;;;;;;3.83;0.53;;;;;;;20.75;40.01;100184.80;125973;1104;24195;-59
2021/05/09 11:13:10;;;;;;;2.05;0.50;;;;;;;20.79;38.98;100185.25;126156;1097;25723;-57
2021/05/09 11:15:40;;;;;;;2.18;0.50;;;;;;;20.82;39.61;100174.84;126203;1102;22751;-59
2021/05/09 11:18:18;;;;;;;1.63;0.50;;;;;;;20.83;39.97;100191.34;126116;1102;22772;-60
2021/05/09 11:20:55;;;;;;;2.03;0.50;;;;;;;20.94;39.99;100174.03;125932;1096;27189;-60
2021/05/09 11:23:25;;;;;;;2.00;0.35;;;;;;;21.04;39.08;100167.91;125918;1104;22778;-60
2021/05/09 11:25:55;;;;;;;1.08;0.38;;;;;;;21.05;38.88;100163.75;126097;1096;22728;-62
2021/05/09 11:28:30;;;;;;;3.13;0.40;;;;;;;21.06;38.73;100163.22;125845;1101;22758;-60
2021/05/09 11:31:00;;;;;;;1.20;0.40;;;;;;;21.16;39.16;100160.64;125750;1101;22765;-61
2021/05/09 11:33:53;;;;;;;3.23;0.38;;;;;;;21.25;38.97;100157.32;125711;1102;22736;-60
2021/05/09 11:36:28;;;;;;;3.13;0.50;;;;;;;21.30;39.51;100160.01;125672;1105;22760;-62